Weather at Bernardo's Airport

Public forecast

Using degrees Celsius for public forecast. Weather courtesy of forecast.io.

Closest aviation weather report (METAR) to Bernardo's Airport

Closest report is Rosario Islas Malvinas International Airport, 58.8 nm (109.0 km) SE.

2024/07/14 17:00 (retrieved 1 hour ago)

SAAR 141700Z 09005KT 060V130 CAVOK 12/00 Q1029

Closest aviation forecast (TAF) to Bernardo's Airport

Closest forecast is Rosario Islas Malvinas International Airport, 58.8 nm (109.0 km) SE.

2024/07/14 18:33 (retrieved 0 seconds ago)

TAF TAF SAAR 141700Z 1418/1518 VRB03KT CAVOK TX16/1518Z TN05/1509Z BECMG 1504/1506 5000 BR BKN030 PROB40 1508/1510 1500 BR BKN020 TEMPO 1509/1513 0300 BCFG BECMG 1513/1515 9999 BKN025